sensor_id;sensor_type;location;lat;lon;timestamp;P1;durP1;ratioP1;P2;durP2;ratioP2
15643;SDS011;7921;43.586;1.408;2023-05-27T00:01:42;3.53;;;2.70;;
15643;SDS011;7921;43.586;1.408;2023-05-27T00:04:08;4.15;;;3.10;;
15643;SDS011;7921;43.586;1.408;2023-05-27T00:06:33;4.30;;;3.17;;
15643;SDS011;7921;43.586;1.408;2023-05-27T00:08:58;4.70;;;2.90;;
15643;SDS011;7921;43.586;1.408;2023-05-27T00:11:24;4.53;;;2.72;;
15643;SDS011;7921;43.586;1.408;2023-05-27T00:13:50;4.20;;;3.28;;
15643;SDS011;7921;43.586;1.408;2023-05-27T00:16:15;4.57;;;3.58;;
15643;SDS011;7921;43.586;1.408;2023-05-27T00:18:41;5.72;;;3.28;;
15643;SDS011;7921;43.586;1.408;2023-05-27T00:21:07;6.65;;;3.30;;
15643;SDS011;7921;43.586;1.408;2023-05-27T00:23:32;4.40;;;2.85;;
15643;SDS011;7921;43.586;1.408;2023-05-27T00:25:57;4.03;;;2.78;;
15643;SDS011;7921;43.586;1.408;2023-05-27T00:28:23;3.72;;;2.92;;
15643;SDS011;7921;43.586;1.408;2023-05-27T00:30:48;5.60;;;3.58;;
15643;SDS011;7921;43.586;1.408;2023-05-27T00:33:14;3.72;;;2.80;;
15643;SDS011;7921;43.586;1.408;2023-05-27T00:35:39;5.68;;;3.20;;
15643;SDS011;7921;43.586;1.408;2023-05-27T00:38:05;4.13;;;2.97;;
15643;SDS011;7921;43.586;1.408;2023-05-27T00:40:30;3.22;;;2.90;;
15643;SDS011;7921;43.586;1.408;2023-05-27T00:42:56;3.17;;;2.75;;
15643;SDS011;7921;43.586;1.408;2023-05-27T00:45:21;5.15;;;2.83;;
15643;SDS011;7921;43.586;1.408;2023-05-27T00:47:47;4.70;;;3.13;;
15643;SDS011;7921;43.586;1.408;2023-05-27T00:50:12;3.80;;;2.58;;
15643;SDS011;7921;43.586;1.408;2023-05-27T00:52:38;4.53;;;2.55;;
15643;SDS011;7921;43.586;1.408;2023-05-27T00:55:03;4.13;;;2.60;;
15643;SDS011;7921;43.586;1.408;2023-05-27T00:57:30;5.68;;;2.78;;
15643;SDS011;7921;43.586;1.408;2023-05-27T00:59:55;4.28;;;2.90;;
15643;SDS011;7921;43.586;1.408;2023-05-27T01:02:21;3.90;;;2.92;;
15643;SDS011;7921;43.586;1.408;2023-05-27T01:04:47;5.10;;;3.15;;
15643;SDS011;7921;43.586;1.408;2023-05-27T01:13:16;6.82;;;3.13;;
15643;SDS011;7921;43.586;1.408;2023-05-27T01:15:45;5.72;;;2.80;;
15643;SDS011;7921;43.586;1.408;2023-05-27T01:18:12;5.78;;;3.13;;
15643;SDS011;7921;43.586;1.408;2023-05-27T01:20:37;4.78;;;3.00;;
15643;SDS011;7921;43.586;1.408;2023-05-27T01:23:06;6.35;;;3.47;;
15643;SDS011;7921;43.586;1.408;2023-05-27T01:25:32;5.68;;;2.95;;
15643;SDS011;7921;43.586;1.408;2023-05-27T01:27:58;3.22;;;2.75;;
15643;SDS011;7921;43.586;1.408;2023-05-27T01:30:23;5.50;;;3.00;;
15643;SDS011;7921;43.586;1.408;2023-05-27T01:32:52;3.22;;;2.90;;
15643;SDS011;7921;43.586;1.408;2023-05-27T01:37:59;3.13;;;2.78;;
15643;SDS011;7921;43.586;1.408;2023-05-27T01:40:27;6.70;;;3.25;;
15643;SDS011;7921;43.586;1.408;2023-05-27T01:42:56;3.35;;;2.28;;
15643;SDS011;7921;43.586;1.408;2023-05-27T01:45:22;3.30;;;2.92;;
15643;SDS011;7921;43.586;1.408;2023-05-27T01:47:48;3.90;;;2.90;;
15643;SDS011;7921;43.586;1.408;2023-05-27T01:50:13;4.75;;;2.70;;
15643;SDS011;7921;43.586;1.408;2023-05-27T01:52:38;3.53;;;2.63;;
15643;SDS011;7921;43.586;1.408;2023-05-27T01:55:05;6.35;;;3.22;;
15643;SDS011;7921;43.586;1.408;2023-05-27T01:57:31;5.40;;;3.40;;
15643;SDS011;7921;43.586;1.408;2023-05-27T01:59:56;3.97;;;3.05;;
15643;SDS011;7921;43.586;1.408;2023-05-27T02:02:22;3.95;;;3.17;;
15643;SDS011;7921;43.586;1.408;2023-05-27T02:04:47;4.97;;;2.97;;
15643;SDS011;7921;43.586;1.408;2023-05-27T02:07:13;3.20;;;2.67;;
15643;SDS011;7921;43.586;1.408;2023-05-27T02:09:38;5.30;;;3.00;;
15643;SDS011;7921;43.586;1.408;2023-05-27T02:12:03;4.47;;;3.33;;
15643;SDS011;7921;43.586;1.408;2023-05-27T02:14:30;3.53;;;2.85;;
15643;SDS011;7921;43.586;1.408;2023-05-27T02:16:56;7.50;;;2.78;;
15643;SDS011;7921;43.586;1.408;2023-05-27T02:19:21;4.70;;;2.92;;
15643;SDS011;7921;43.586;1.408;2023-05-27T02:21:47;3.40;;;3.10;;
15643;SDS011;7921;43.586;1.408;2023-05-27T02:24:12;4.28;;;3.30;;
15643;SDS011;7921;43.586;1.408;2023-05-27T02:26:37;3.75;;;2.97;;
15643;SDS011;7921;43.586;1.408;2023-05-27T02:29:03;4.18;;;3.28;;
15643;SDS011;7921;43.586;1.408;2023-05-27T02:31:28;3.00;;;2.80;;
15643;SDS011;7921;43.586;1.408;2023-05-27T02:33:54;4.07;;;2.70;;
15643;SDS011;7921;43.586;1.408;2023-05-27T02:36:19;5.88;;;3.30;;
15643;SDS011;7921;43.586;1.408;2023-05-27T02:38:46;3.65;;;3.35;;
15643;SDS011;7921;43.586;1.408;2023-05-27T02:41:11;5.55;;;3.53;;
15643;SDS011;7921;43.586;1.408;2023-05-27T02:43:36;4.68;;;3.38;;
15643;SDS011;7921;43.586;1.408;2023-05-27T02:46:02;5.03;;;3.17;;
15643;SDS011;7921;43.586;1.408;2023-05-27T02:48:27;4.72;;;3.47;;
15643;SDS011;7921;43.586;1.408;2023-05-27T02:50:53;3.50;;;3.08;;
15643;SDS011;7921;43.586;1.408;2023-05-27T02:53:18;5.82;;;2.92;;
15643;SDS011;7921;43.586;1.408;2023-05-27T02:55:43;5.40;;;3.53;;
15643;SDS011;7921;43.586;1.408;2023-05-27T02:58:09;4.05;;;3.30;;
15643;SDS011;7921;43.586;1.408;2023-05-27T03:00:35;3.20;;;2.88;;
15643;SDS011;7921;43.586;1.408;2023-05-27T03:03:00;3.03;;;2.78;;
15643;SDS011;7921;43.586;1.408;2023-05-27T03:05:28;3.33;;;3.03;;
15643;SDS011;7921;43.586;1.408;2023-05-27T03:07:54;5.30;;;3.15;;
15643;SDS011;7921;43.586;1.408;2023-05-27T03:10:19;3.22;;;2.92;;
15643;SDS011;7921;43.586;1.408;2023-05-27T03:12:45;3.70;;;3.13;;
15643;SDS011;7921;43.586;1.408;2023-05-27T03:15:10;3.67;;;3.13;;
15643;SDS011;7921;43.586;1.408;2023-05-27T03:17:36;4.90;;;3.60;;
15643;SDS011;7921;43.586;1.408;2023-05-27T03:20:02;4.70;;;3.63;;
15643;SDS011;7921;43.586;1.408;2023-05-27T03:22:30;4.05;;;2.95;;
15643;SDS011;7921;43.586;1.408;2023-05-27T03:24:56;3.90;;;3.13;;
15643;SDS011;7921;43.586;1.408;2023-05-27T03:27:22;3.67;;;3.08;;
15643;SDS011;7921;43.586;1.408;2023-05-27T03:29:47;3.53;;;3.22;;
15643;SDS011;7921;43.586;1.408;2023-05-27T03:32:13;5.15;;;3.45;;
15643;SDS011;7921;43.586;1.408;2023-05-27T03:34:38;3.45;;;3.15;;
15643;SDS011;7921;43.586;1.408;2023-05-27T03:37:04;4.93;;;3.05;;
15643;SDS011;7921;43.586;1.408;2023-05-27T03:39:29;3.55;;;2.92;;
15643;SDS011;7921;43.586;1.408;2023-05-27T03:41:55;5.03;;;3.30;;
15643;SDS011;7921;43.586;1.408;2023-05-27T03:44:20;3.65;;;3.10;;
15643;SDS011;7921;43.586;1.408;2023-05-27T03:46:46;3.80;;;3.40;;
15643;SDS011;7921;43.586;1.408;2023-05-27T03:49:11;4.32;;;3.33;;
15643;SDS011;7921;43.586;1.408;2023-05-27T03:51:37;4.05;;;3.30;;
15643;SDS011;7921;43.586;1.408;2023-05-27T03:54:02;4.30;;;3.33;;
15643;SDS011;7921;43.586;1.408;2023-05-27T03:56:28;3.85;;;3.20;;
15643;SDS011;7921;43.586;1.408;2023-05-27T03:58:53;4.30;;;3.38;;
15643;SDS011;7921;43.586;1.408;2023-05-27T04:01:18;4.50;;;3.83;;
15643;SDS011;7921;43.586;1.408;2023-05-27T04:03:45;4.22;;;2.95;;
15643;SDS011;7921;43.586;1.408;2023-05-27T04:06:10;4.40;;;3.17;;
15643;SDS011;7921;43.586;1.408;2023-05-27T04:08:36;3.28;;;2.97;;
15643;SDS011;7921;43.586;1.408;2023-05-27T04:11:02;3.38;;;3.08;;
15643;SDS011;7921;43.586;1.408;2023-05-27T04:13:28;5.38;;;3.40;;
15643;SDS011;7921;43.586;1.408;2023-05-27T04:15:53;4.63;;;3.00;;
15643;SDS011;7921;43.586;1.408;2023-05-27T04:18:19;4.72;;;3.13;;
15643;SDS011;7921;43.586;1.408;2023-05-27T04:20:45;4.93;;;3.60;;
15643;SDS011;7921;43.586;1.408;2023-05-27T04:23:12;7.07;;;3.30;;
15643;SDS011;7921;43.586;1.408;2023-05-27T04:25:37;4.35;;;3.55;;
15643;SDS011;7921;43.586;1.408;2023-05-27T04:28:06;3.78;;;3.35;;
15643;SDS011;7921;43.586;1.408;2023-05-27T04:30:34;5.40;;;3.75;;
15643;SDS011;7921;43.586;1.408;2023-05-27T04:32:59;3.20;;;2.90;;
15643;SDS011;7921;43.586;1.408;2023-05-27T04:35:25;5.63;;;3.78;;
15643;SDS011;7921;43.586;1.408;2023-05-27T04:37:51;5.70;;;3.78;;
15643;SDS011;7921;43.586;1.408;2023-05-27T04:40:16;3.50;;;3.20;;
15643;SDS011;7921;43.586;1.408;2023-05-27T04:42:42;5.45;;;3.45;;
15643;SDS011;7921;43.586;1.408;2023-05-27T04:45:08;4.88;;;3.30;;
15643;SDS011;7921;43.586;1.408;2023-05-27T04:47:36;6.25;;;3.70;;
15643;SDS011;7921;43.586;1.408;2023-05-27T04:50:02;3.83;;;3.53;;
15643;SDS011;7921;43.586;1.408;2023-05-27T04:52:29;3.65;;;3.30;;
15643;SDS011;7921;43.586;1.408;2023-05-27T04:54:54;4.18;;;3.42;;
15643;SDS011;7921;43.586;1.408;2023-05-27T04:57:20;4.05;;;3.28;;
15643;SDS011;7921;43.586;1.408;2023-05-27T04:59:46;4.35;;;3.88;;
15643;SDS011;7921;43.586;1.408;2023-05-27T05:02:43;4.50;;;3.53;;
15643;SDS011;7921;43.586;1.408;2023-05-27T05:05:11;3.88;;;3.58;;
15643;SDS011;7921;43.586;1.408;2023-05-27T05:07:37;5.10;;;3.33;;
15643;SDS011;7921;43.586;1.408;2023-05-27T05:10:06;5.03;;;3.42;;
15643;SDS011;7921;43.586;1.408;2023-05-27T05:12:32;5.35;;;4.03;;
15643;SDS011;7921;43.586;1.408;2023-05-27T05:14:58;3.72;;;3.17;;
15643;SDS011;7921;43.586;1.408;2023-05-27T05:17:23;4.53;;;3.92;;
15643;SDS011;7921;43.586;1.408;2023-05-27T05:19:49;4.03;;;3.53;;
15643;SDS011;7921;43.586;1.408;2023-05-27T05:22:15;4.10;;;3.55;;
15643;SDS011;7921;43.586;1.408;2023-05-27T05:24:43;4.10;;;3.60;;
15643;SDS011;7921;43.586;1.408;2023-05-27T05:27:09;5.25;;;4.50;;
15643;SDS011;7921;43.586;1.408;2023-05-27T05:29:35;6.53;;;3.13;;
15643;SDS011;7921;43.586;1.408;2023-05-27T05:32:01;6.65;;;3.80;;
15643;SDS011;7921;43.586;1.408;2023-05-27T05:34:27;6.50;;;3.83;;
15643;SDS011;7921;43.586;1.408;2023-05-27T05:36:52;4.90;;;3.72;;
15643;SDS011;7921;43.586;1.408;2023-05-27T05:39:18;4.63;;;3.80;;
15643;SDS011;7921;43.586;1.408;2023-05-27T05:41:43;4.68;;;3.85;;
15643;SDS011;7921;43.586;1.408;2023-05-27T05:44:08;5.65;;;3.88;;
15643;SDS011;7921;43.586;1.408;2023-05-27T05:46:34;5.22;;;3.80;;
15643;SDS011;7921;43.586;1.408;2023-05-27T05:48:59;3.45;;;3.20;;
15643;SDS011;7921;43.586;1.408;2023-05-27T05:51:25;5.07;;;3.95;;
15643;SDS011;7921;43.586;1.408;2023-05-27T05:53:50;3.88;;;3.30;;
15643;SDS011;7921;43.586;1.408;2023-05-27T05:56:16;5.22;;;3.35;;
15643;SDS011;7921;43.586;1.408;2023-05-27T05:58:41;5.57;;;3.30;;
15643;SDS011;7921;43.586;1.408;2023-05-27T06:01:06;4.88;;;3.85;;
15643;SDS011;7921;43.586;1.408;2023-05-27T06:03:32;4.15;;;3.83;;
15643;SDS011;7921;43.586;1.408;2023-05-27T06:05:57;6.47;;;4.28;;
15643;SDS011;7921;43.586;1.408;2023-05-27T06:08:23;4.63;;;3.60;;
15643;SDS011;7921;43.586;1.408;2023-05-27T06:10:49;4.07;;;3.45;;
15643;SDS011;7921;43.586;1.408;2023-05-27T06:13:15;4.97;;;3.78;;
15643;SDS011;7921;43.586;1.408;2023-05-27T06:15:41;4.75;;;3.88;;
15643;SDS011;7921;43.586;1.408;2023-05-27T06:18:07;4.55;;;3.60;;
15643;SDS011;7921;43.586;1.408;2023-05-27T06:20:32;4.50;;;3.83;;
15643;SDS011;7921;43.586;1.408;2023-05-27T06:22:57;5.53;;;4.60;;
15643;SDS011;7921;43.586;1.408;2023-05-27T06:25:23;5.30;;;3.60;;
15643;SDS011;7921;43.586;1.408;2023-05-27T06:27:48;5.68;;;3.95;;
15643;SDS011;7921;43.586;1.408;2023-05-27T06:30:14;5.78;;;3.63;;
15643;SDS011;7921;43.586;1.408;2023-05-27T06:32:39;4.82;;;4.40;;
15643;SDS011;7921;43.586;1.408;2023-05-27T06:35:05;6.15;;;4.43;;
15643;SDS011;7921;43.586;1.408;2023-05-27T06:37:30;4.65;;;4.00;;
15643;SDS011;7921;43.586;1.408;2023-05-27T06:39:56;7.55;;;4.20;;
15643;SDS011;7921;43.586;1.408;2023-05-27T06:42:21;4.55;;;4.15;;
15643;SDS011;7921;43.586;1.408;2023-05-27T06:44:47;5.25;;;4.20;;
15643;SDS011;7921;43.586;1.408;2023-05-27T06:47:13;4.93;;;3.70;;
15643;SDS011;7921;43.586;1.408;2023-05-27T06:49:38;4.65;;;4.00;;
15643;SDS011;7921;43.586;1.408;2023-05-27T06:52:04;5.88;;;3.88;;
15643;SDS011;7921;43.586;1.408;2023-05-27T06:54:30;6.03;;;4.40;;
15643;SDS011;7921;43.586;1.408;2023-05-27T06:56:55;4.82;;;4.15;;
15643;SDS011;7921;43.586;1.408;2023-05-27T06:59:21;5.68;;;3.65;;
15643;SDS011;7921;43.586;1.408;2023-05-27T07:01:47;4.65;;;4.07;;
15643;SDS011;7921;43.586;1.408;2023-05-27T07:04:12;5.32;;;3.97;;
15643;SDS011;7921;43.586;1.408;2023-05-27T07:06:38;4.85;;;3.83;;
15643;SDS011;7921;43.586;1.408;2023-05-27T07:09:03;5.30;;;3.85;;
15643;SDS011;7921;43.586;1.408;2023-05-27T07:11:29;5.47;;;4.25;;
15643;SDS011;7921;43.586;1.408;2023-05-27T07:13:54;4.80;;;4.30;;
15643;SDS011;7921;43.586;1.408;2023-05-27T07:16:20;4.50;;;4.10;;
15643;SDS011;7921;43.586;1.408;2023-05-27T07:18:46;5.65;;;3.72;;
15643;SDS011;7921;43.586;1.408;2023-05-27T07:21:11;7.28;;;4.00;;
15643;SDS011;7921;43.586;1.408;2023-05-27T07:23:36;4.75;;;4.20;;
15643;SDS011;7921;43.586;1.408;2023-05-27T07:26:02;6.05;;;4.47;;
15643;SDS011;7921;43.586;1.408;2023-05-27T07:28:27;6.43;;;4.25;;
15643;SDS011;7921;43.586;1.408;2023-05-27T07:30:53;6.03;;;3.88;;
15643;SDS011;7921;43.586;1.408;2023-05-27T07:33:18;4.72;;;4.00;;
15643;SDS011;7921;43.586;1.408;2023-05-27T07:35:43;6.40;;;3.97;;
15643;SDS011;7921;43.586;1.408;2023-05-27T07:38:09;5.55;;;3.95;;
15643;SDS011;7921;43.586;1.408;2023-05-27T07:40:35;4.32;;;3.58;;
15643;SDS011;7921;43.586;1.408;2023-05-27T07:43:00;5.82;;;4.15;;
15643;SDS011;7921;43.586;1.408;2023-05-27T07:45:26;4.28;;;3.80;;
15643;SDS011;7921;43.586;1.408;2023-05-27T07:47:51;4.47;;;3.53;;
15643;SDS011;7921;43.586;1.408;2023-05-27T07:50:17;5.55;;;3.72;;
15643;SDS011;7921;43.586;1.408;2023-05-27T07:52:42;3.90;;;3.50;;
15643;SDS011;7921;43.586;1.408;2023-05-27T07:55:08;4.88;;;3.10;;
15643;SDS011;7921;43.586;1.408;2023-05-27T07:57:33;4.32;;;3.15;;
15643;SDS011;7921;43.586;1.408;2023-05-27T07:59:59;6.07;;;3.17;;
15643;SDS011;7921;43.586;1.408;2023-05-27T08:02:24;3.60;;;3.00;;
15643;SDS011;7921;43.586;1.408;2023-05-27T08:04:50;3.92;;;2.80;;
15643;SDS011;7921;43.586;1.408;2023-05-27T08:07:17;5.80;;;3.28;;
15643;SDS011;7921;43.586;1.408;2023-05-27T08:09:42;3.90;;;2.58;;
15643;SDS011;7921;43.586;1.408;2023-05-27T08:12:07;3.95;;;3.10;;
15643;SDS011;7921;43.586;1.408;2023-05-27T08:14:34;4.07;;;2.97;;
15643;SDS011;7921;43.586;1.408;2023-05-27T08:16:59;3.20;;;2.45;;
15643;SDS011;7921;43.586;1.408;2023-05-27T08:19:25;4.28;;;3.25;;
15643;SDS011;7921;43.586;1.408;2023-05-27T08:21:50;6.00;;;2.78;;
15643;SDS011;7921;43.586;1.408;2023-05-27T08:24:16;4.13;;;3.38;;
15643;SDS011;7921;43.586;1.408;2023-05-27T08:26:42;4.20;;;2.47;;
15643;SDS011;7921;43.586;1.408;2023-05-27T08:29:07;4.18;;;3.05;;
15643;SDS011;7921;43.586;1.408;2023-05-27T08:31:32;5.20;;;2.50;;
15643;SDS011;7921;43.586;1.408;2023-05-27T08:33:58;3.05;;;2.55;;
15643;SDS011;7921;43.586;1.408;2023-05-27T08:36:23;4.72;;;2.45;;
15643;SDS011;7921;43.586;1.408;2023-05-27T08:38:49;3.58;;;2.40;;
15643;SDS011;7921;43.586;1.408;2023-05-27T08:41:14;2.83;;;2.20;;
15643;SDS011;7921;43.586;1.408;2023-05-27T08:43:40;4.47;;;2.67;;
15643;SDS011;7921;43.586;1.408;2023-05-27T08:46:07;5.28;;;2.60;;
15643;SDS011;7921;43.586;1.408;2023-05-27T08:48:32;5.38;;;2.55;;
15643;SDS011;7921;43.586;1.408;2023-05-27T08:50:58;4.72;;;2.75;;
15643;SDS011;7921;43.586;1.408;2023-05-27T08:53:25;2.50;;;2.30;;
15643;SDS011;7921;43.586;1.408;2023-05-27T08:55:51;2.72;;;2.15;;
15643;SDS011;7921;43.586;1.408;2023-05-27T08:58:17;3.33;;;2.35;;
15643;SDS011;7921;43.586;1.408;2023-05-27T09:00:43;2.55;;;2.30;;
15643;SDS011;7921;43.586;1.408;2023-05-27T09:03:08;4.38;;;2.33;;
15643;SDS011;7921;43.586;1.408;2023-05-27T09:05:34;4.55;;;2.13;;
15643;SDS011;7921;43.586;1.408;2023-05-27T09:07:59;6.43;;;2.00;;
15643;SDS011;7921;43.586;1.408;2023-05-27T09:10:34;4.18;;;1.90;;
15643;SDS011;7921;43.586;1.408;2023-05-27T09:13:06;3.45;;;2.00;;
15643;SDS011;7921;43.586;1.408;2023-05-27T09:15:32;3.50;;;1.83;;
15643;SDS011;7921;43.586;1.408;2023-05-27T09:17:57;5.22;;;2.33;;
15643;SDS011;7921;43.586;1.408;2023-05-27T09:20:26;3.30;;;2.20;;
15643;SDS011;7921;43.586;1.408;2023-05-27T09:22:59;2.80;;;1.83;;
15643;SDS011;7921;43.586;1.408;2023-05-27T09:25:29;2.13;;;1.60;;
15643;SDS011;7921;43.586;1.408;2023-05-27T09:27:54;4.70;;;1.55;;
15643;SDS011;7921;43.586;1.408;2023-05-27T09:30:21;3.63;;;2.22;;
15643;SDS011;7921;43.586;1.408;2023-05-27T09:32:47;7.35;;;2.05;;
15643;SDS011;7921;43.586;1.408;2023-05-27T09:35:14;3.75;;;1.67;;
15643;SDS011;7921;43.586;1.408;2023-05-27T09:37:40;2.92;;;2.33;;
15643;SDS011;7921;43.586;1.408;2023-05-27T09:40:10;3.45;;;1.77;;
15643;SDS011;7921;43.586;1.408;2023-05-27T09:45:13;3.28;;;1.90;;
15643;SDS011;7921;43.586;1.408;2023-05-27T09:47:46;3.72;;;1.85;;
15643;SDS011;7921;43.586;1.408;2023-05-27T09:50:13;4.40;;;1.65;;
15643;SDS011;7921;43.586;1.408;2023-05-27T09:52:39;2.45;;;1.73;;
15643;SDS011;7921;43.586;1.408;2023-05-27T09:55:08;1.83;;;1.42;;
15643;SDS011;7921;43.586;1.408;2023-05-27T09:57:36;2.13;;;1.55;;
15643;SDS011;7921;43.586;1.408;2023-05-27T10:00:05;3.05;;;2.00;;
15643;SDS011;7921;43.586;1.408;2023-05-27T10:02:38;2.15;;;1.52;;
15643;SDS011;7921;43.586;1.408;2023-05-27T10:05:05;2.60;;;1.85;;
15643;SDS011;7921;43.586;1.408;2023-05-27T10:07:35;2.67;;;2.17;;
15643;SDS011;7921;43.586;1.408;2023-05-27T10:10:02;2.55;;;1.60;;
15643;SDS011;7921;43.586;1.408;2023-05-27T10:12:39;3.45;;;1.88;;
15643;SDS011;7921;43.586;1.408;2023-05-27T10:15:06;2.40;;;1.80;;
15643;SDS011;7921;43.586;1.408;2023-05-27T10:17:47;3.55;;;1.90;;
15643;SDS011;7921;43.586;1.408;2023-05-27T10:23:14;3.17;;;1.80;;
15643;SDS011;7921;43.586;1.408;2023-05-27T10:25:45;2.25;;;1.90;;
15643;SDS011;7921;43.586;1.408;2023-05-27T10:28:22;3.00;;;1.92;;
15643;SDS011;7921;43.586;1.408;2023-05-27T10:31:10;2.20;;;2.00;;
15643;SDS011;7921;43.586;1.408;2023-05-27T10:33:40;2.70;;;1.77;;
15643;SDS011;7921;43.586;1.408;2023-05-27T10:38:34;3.90;;;3.17;;
15643;SDS011;7921;43.586;1.408;2023-05-27T10:41:00;3.53;;;2.78;;
15643;SDS011;7921;43.586;1.408;2023-05-27T10:43:27;3.35;;;1.60;;
15643;SDS011;7921;43.586;1.408;2023-05-27T10:46:04;2.72;;;1.70;;
15643;SDS011;7921;43.586;1.408;2023-05-27T10:48:33;5.55;;;2.13;;
15643;SDS011;7921;43.586;1.408;2023-05-27T10:50:59;4.32;;;3.42;;
15643;SDS011;7921;43.586;1.408;2023-05-27T10:53:27;3.10;;;1.80;;
15643;SDS011;7921;43.586;1.408;2023-05-27T10:55:53;2.80;;;1.90;;
15643;SDS011;7921;43.586;1.408;2023-05-27T10:58:19;2.58;;;1.50;;
15643;SDS011;7921;43.586;1.408;2023-05-27T11:00:48;1.67;;;1.58;;
15643;SDS011;7921;43.586;1.408;2023-05-27T11:03:22;1.88;;;1.45;;
15643;SDS011;7921;43.586;1.408;2023-05-27T11:08:23;4.05;;;1.77;;
15643;SDS011;7921;43.586;1.408;2023-05-27T11:10:49;2.72;;;1.40;;
15643;SDS011;7921;43.586;1.408;2023-05-27T11:13:15;2.08;;;1.40;;
15643;SDS011;7921;43.586;1.408;2023-05-27T11:15:40;3.10;;;1.80;;
15643;SDS011;7921;43.586;1.408;2023-05-27T11:18:07;3.35;;;1.80;;
15643;SDS011;7921;43.586;1.408;2023-05-27T11:20:36;4.57;;;1.80;;
15643;SDS011;7921;43.586;1.408;2023-05-27T11:23:02;2.30;;;1.42;;
15643;SDS011;7921;43.586;1.408;2023-05-27T11:25:28;2.83;;;1.58;;
15643;SDS011;7921;43.586;1.408;2023-05-27T11:27:54;2.25;;;1.70;;
15643;SDS011;7921;43.586;1.408;2023-05-27T11:30:23;2.38;;;1.50;;
15643;SDS011;7921;43.586;1.408;2023-05-27T11:32:49;2.42;;;1.80;;
15643;SDS011;7921;43.586;1.408;2023-05-27T11:35:18;1.95;;;1.65;;
15643;SDS011;7921;43.586;1.408;2023-05-27T11:37:46;3.20;;;1.80;;
15643;SDS011;7921;43.586;1.408;2023-05-27T11:40:14;1.75;;;1.60;;
15643;SDS011;7921;43.586;1.408;2023-05-27T11:42:45;1.95;;;1.75;;
15643;SDS011;7921;43.586;1.408;2023-05-27T11:45:15;2.45;;;1.52;;
15643;SDS011;7921;43.586;1.408;2023-05-27T11:47:44;3.60;;;1.95;;
15643;SDS011;7921;43.586;1.408;2023-05-27T11:50:14;2.33;;;1.63;;
15643;SDS011;7921;43.586;1.408;2023-05-27T11:55:17;2.72;;;1.92;;
15643;SDS011;7921;43.586;1.408;2023-05-27T11:57:43;2.38;;;1.95;;
15643;SDS011;7921;43.586;1.408;2023-05-27T12:00:08;1.90;;;1.70;;
15643;SDS011;7921;43.586;1.408;2023-05-27T12:02:34;2.47;;;2.10;;
15643;SDS011;7921;43.586;1.408;2023-05-27T12:05:00;1.95;;;1.80;;
15643;SDS011;7921;43.586;1.408;2023-05-27T12:07:26;3.03;;;1.67;;
15643;SDS011;7921;43.586;1.408;2023-05-27T12:09:51;2.00;;;1.80;;
15643;SDS011;7921;43.586;1.408;2023-05-27T12:12:18;3.15;;;1.90;;
15643;SDS011;7921;43.586;1.408;2023-05-27T12:14:44;1.80;;;1.63;;
15643;SDS011;7921;43.586;1.408;2023-05-27T12:17:10;3.03;;;1.90;;
15643;SDS011;7921;43.586;1.408;2023-05-27T12:19:35;1.88;;;1.70;;
15643;SDS011;7921;43.586;1.408;2023-05-27T12:22:01;3.05;;;1.70;;
15643;SDS011;7921;43.586;1.408;2023-05-27T12:24:26;4.03;;;2.00;;
15643;SDS011;7921;43.586;1.408;2023-05-27T12:26:51;3.40;;;2.03;;
15643;SDS011;7921;43.586;1.408;2023-05-27T12:29:17;1.92;;;1.67;;
15643;SDS011;7921;43.586;1.408;2023-05-27T12:31:42;3.25;;;2.03;;
15643;SDS011;7921;43.586;1.408;2023-05-27T12:34:07;1.80;;;1.67;;
15643;SDS011;7921;43.586;1.408;2023-05-27T12:36:33;2.60;;;1.60;;
15643;SDS011;7921;43.586;1.408;2023-05-27T12:38:58;3.15;;;1.88;;
15643;SDS011;7921;43.586;1.408;2023-05-27T12:41:24;2.35;;;1.88;;
15643;SDS011;7921;43.586;1.408;2023-05-27T12:43:51;5.03;;;2.05;;
15643;SDS011;7921;43.586;1.408;2023-05-27T12:46:17;4.05;;;2.00;;
15643;SDS011;7921;43.586;1.408;2023-05-27T12:48:42;2.72;;;1.73;;
15643;SDS011;7921;43.586;1.408;2023-05-27T12:51:07;2.08;;;1.50;;
15643;SDS011;7921;43.586;1.408;2023-05-27T12:53:33;2.15;;;1.55;;
15643;SDS011;7921;43.586;1.408;2023-05-27T12:55:58;3.30;;;1.65;;
15643;SDS011;7921;43.586;1.408;2023-05-27T12:58:24;3.63;;;1.65;;
15643;SDS011;7921;43.586;1.408;2023-05-27T13:00:49;1.95;;;1.73;;
15643;SDS011;7921;43.586;1.408;2023-05-27T13:03:15;2.38;;;1.42;;
15643;SDS011;7921;43.586;1.408;2023-05-27T13:05:41;2.47;;;1.80;;
15643;SDS011;7921;43.586;1.408;2023-05-27T13:08:06;3.03;;;1.80;;
15643;SDS011;7921;43.586;1.408;2023-05-27T13:10:32;3.50;;;1.73;;
15643;SDS011;7921;43.586;1.408;2023-05-27T13:12:58;3.30;;;1.77;;
15643;SDS011;7921;43.586;1.408;2023-05-27T13:15:25;2.17;;;1.73;;
15643;SDS011;7921;43.586;1.408;2023-05-27T13:17:51;3.50;;;1.80;;
15643;SDS011;7921;43.586;1.408;2023-05-27T13:20:17;3.58;;;1.77;;
15643;SDS011;7921;43.586;1.408;2023-05-27T13:22:44;3.38;;;1.90;;
15643;SDS011;7921;43.586;1.408;2023-05-27T13:25:10;2.92;;;1.90;;
15643;SDS011;7921;43.586;1.408;2023-05-27T13:27:36;4.10;;;1.88;;
15643;SDS011;7921;43.586;1.408;2023-05-27T13:30:01;4.50;;;1.83;;
15643;SDS011;7921;43.586;1.408;2023-05-27T13:32:28;4.75;;;1.90;;
15643;SDS011;7921;43.586;1.408;2023-05-27T13:34:53;5.93;;;1.83;;
15643;SDS011;7921;43.586;1.408;2023-05-27T13:37:20;3.13;;;1.77;;
15643;SDS011;7921;43.586;1.408;2023-05-27T13:39:45;2.08;;;1.90;;
15643;SDS011;7921;43.586;1.408;2023-05-27T13:42:11;1.63;;;1.42;;
15643;SDS011;7921;43.586;1.408;2023-05-27T13:44:36;2.30;;;1.80;;
15643;SDS011;7921;43.586;1.408;2023-05-27T13:47:02;2.35;;;1.88;;
15643;SDS011;7921;43.586;1.408;2023-05-27T13:49:27;2.60;;;1.98;;
15643;SDS011;7921;43.586;1.408;2023-05-27T13:51:53;2.78;;;1.60;;
15643;SDS011;7921;43.586;1.408;2023-05-27T13:54:18;3.97;;;1.50;;
15643;SDS011;7921;43.586;1.408;2023-05-27T13:56:44;2.72;;;1.50;;
15643;SDS011;7921;43.586;1.408;2023-05-27T13:59:10;1.80;;;1.60;;
15643;SDS011;7921;43.586;1.408;2023-05-27T14:01:37;2.80;;;1.67;;
15643;SDS011;7921;43.586;1.408;2023-05-27T14:04:04;5.03;;;2.17;;
15643;SDS011;7921;43.586;1.408;2023-05-27T14:06:29;1.70;;;1.60;;
15643;SDS011;7921;43.586;1.408;2023-05-27T14:08:54;3.22;;;1.65;;
15643;SDS011;7921;43.586;1.408;2023-05-27T14:11:20;1.92;;;1.70;;
15643;SDS011;7921;43.586;1.408;2023-05-27T14:13:47;4.60;;;1.75;;
15643;SDS011;7921;43.586;1.408;2023-05-27T14:16:13;2.92;;;1.80;;
15643;SDS011;7921;43.586;1.408;2023-05-27T14:18:39;2.13;;;1.65;;
15643;SDS011;7921;43.586;1.408;2023-05-27T14:21:04;2.20;;;1.70;;
15643;SDS011;7921;43.586;1.408;2023-05-27T14:23:30;2.20;;;1.80;;
15643;SDS011;7921;43.586;1.408;2023-05-27T14:25:55;2.33;;;1.60;;
15643;SDS011;7921;43.586;1.408;2023-05-27T14:28:21;2.08;;;1.88;;
15643;SDS011;7921;43.586;1.408;2023-05-27T14:30:46;2.30;;;1.50;;
15643;SDS011;7921;43.586;1.408;2023-05-27T14:33:11;4.25;;;1.95;;
15643;SDS011;7921;43.586;1.408;2023-05-27T14:35:37;2.25;;;1.50;;
15643;SDS011;7921;43.586;1.408;2023-05-27T14:38:04;4.18;;;1.67;;
15643;SDS011;7921;43.586;1.408;2023-05-27T14:40:30;3.08;;;1.50;;
15643;SDS011;7921;43.586;1.408;2023-05-27T14:42:55;3.97;;;1.95;;
15643;SDS011;7921;43.586;1.408;2023-05-27T14:45:21;3.05;;;1.70;;
15643;SDS011;7921;43.586;1.408;2023-05-27T14:47:47;1.92;;;1.70;;
15643;SDS011;7921;43.586;1.408;2023-05-27T14:50:17;5.15;;;1.85;;
15643;SDS011;7921;43.586;1.408;2023-05-27T14:52:43;5.55;;;1.52;;
15643;SDS011;7921;43.586;1.408;2023-05-27T14:55:08;2.35;;;1.83;;
15643;SDS011;7921;43.586;1.408;2023-05-27T14:57:34;4.60;;;1.83;;
15643;SDS011;7921;43.586;1.408;2023-05-27T15:00:03;5.07;;;1.80;;
15643;SDS011;7921;43.586;1.408;2023-05-27T15:02:33;2.08;;;1.60;;
15643;SDS011;7921;43.586;1.408;2023-05-27T15:04:59;2.50;;;1.83;;
15643;SDS011;7921;43.586;1.408;2023-05-27T15:07:25;5.07;;;2.15;;
15643;SDS011;7921;43.586;1.408;2023-05-27T15:09:50;2.90;;;1.92;;
15643;SDS011;7921;43.586;1.408;2023-05-27T15:12:16;2.22;;;1.50;;
15643;SDS011;7921;43.586;1.408;2023-05-27T15:14:41;7.03;;;2.00;;
15643;SDS011;7921;43.586;1.408;2023-05-27T15:17:06;3.22;;;1.80;;